Terminal Aerodrome Forecast
Issued by NWS Hastings, NE

Home | Current Version | Previous Version | Text Only | Print | Product List | Glossary On
Versions: 1 2 3 4 5 6 7 8 9 10 11 12 13 14 15 16 17 18 19 20 21 22 23 24 25 26 27 28 29 30 31 32 33 34 35 36
000
FTUS43 KGID 172329
TAFGRI
TAF
KGRI 172329Z 1800/1824 05008KT P6SM VCSH SCT025 BKN050
     FM180500 08007KT P6SM VCSH SCT005 OVC025
     FM180900 10006KT 3SM BR VCSH SCT003 OVC010
     FM181500 12008KT P6SM VCSH SCT010 OVC015
     FM182300 13009KT P6SM VCTS SCT020CB BKN030=

USA.gov is the U.S. government's official web portal to all federal, state and local government web resources and services.